Hazel Hurst, Pennsylvania
Current Conditions -  °F | °C
As of 6:53 PM on Friday 21 Nov 2014 (Local Time) from KBFD Reporting Station
Clear Clear  
Wind Chill: 17°   Ceiling: Unl
Heat Index: 17°   Visibility: 10mi
Dew Point:   Wind: 0mph
Humidity: 65%   Direction: NA
Pressure: 30.38"   Gusts: NA
Location:  41.71°N, 78.58°W
Report Text: KBFD 212353Z AUTO 00000KT 10SM CLR M08/M14 A3038 RMK AO2 SLP324 T10831139 11044 21083 51010
Loading
Personal Weather Stations






























Interactive Weather Map New forecast layout! Learn more

10-Day Weather Forecast

Advertisements
Track Severe Weather on mobile